createdAt,value
2022-11-12T00:00:02.840Z,6.37
2022-11-12T00:05:04.819Z,6.17
2022-11-12T00:10:06.634Z,6.50
2022-11-12T00:15:08.941Z,6.07
2022-11-12T00:20:11.281Z,6.90
2022-11-12T00:25:13.075Z,6.03
2022-11-12T00:30:14.712Z,7.30
2022-11-12T00:35:16.382Z,5.83
2022-11-12T00:40:18.006Z,5.97
2022-11-12T00:45:20.487Z,6.47
2022-11-12T00:50:22.246Z,6.20
2022-11-12T00:55:23.852Z,5.90
2022-11-12T01:00:26.015Z,6.10
2022-11-12T01:05:27.623Z,6.90
2022-11-12T01:10:29.255Z,6.87
2022-11-12T01:15:30.878Z,6.27
2022-11-12T01:20:32.472Z,7.00
2022-11-12T01:25:34.070Z,6.63
2022-11-12T01:30:35.727Z,7.50
2022-11-12T01:35:37.323Z,7.17
2022-11-12T01:40:39.017Z,6.40
2022-11-12T01:45:45.357Z,6.97
2022-11-12T01:50:47.142Z,6.07
2022-11-12T01:55:49.714Z,6.47
2022-11-12T02:00:51.946Z,5.90
2022-11-12T02:06:03.099Z,6.60
2022-11-12T02:11:17.875Z,5.90
2022-11-12T02:16:19.655Z,6.13
2022-11-12T02:21:22.759Z,5.97
2022-11-12T02:26:25.120Z,5.77
2022-11-12T02:31:26.714Z,6.30
2022-11-12T02:36:29.028Z,6.03
2022-11-12T02:41:31.089Z,5.07
2022-11-12T02:46:32.739Z,5.87
2022-11-12T02:51:34.342Z,5.27
2022-11-12T02:56:35.942Z,6.07
2022-11-12T03:01:37.574Z,4.93
2022-11-12T03:06:39.681Z,4.73
2022-11-12T03:11:41.428Z,5.67
2022-11-12T03:16:43.078Z,7.70
2022-11-12T03:21:44.680Z,4.43
2022-11-12T03:26:46.287Z,7.17
2022-11-12T03:31:47.890Z,5.57
2022-11-12T03:36:49.774Z,4.80
2022-11-12T03:41:51.409Z,5.23
2022-11-12T03:46:53.039Z,5.47
2022-11-12T03:51:54.632Z,5.60
2022-11-12T03:56:56.264Z,5.33
2022-11-12T04:01:57.872Z,4.97
2022-11-12T04:07:18.353Z,5.73
2022-11-12T04:12:38.881Z,7.63
2022-11-12T04:17:59.007Z,7.57
2022-11-12T04:23:00.642Z,5.57
2022-11-12T04:28:02.253Z,5.73
2022-11-12T04:33:03.997Z,6.47
2022-11-12T04:38:05.604Z,6.30
2022-11-12T04:43:29.971Z,5.13
2022-11-12T04:48:32.142Z,5.80
2022-11-12T04:53:33.748Z,5.67
2022-11-12T04:58:35.367Z,6.03
2022-11-12T05:03:38.232Z,6.13
2022-11-12T05:08:39.830Z,5.93
2022-11-12T05:13:41.463Z,6.50
2022-11-12T05:18:43.054Z,6.50
2022-11-12T05:23:44.653Z,6.80
2022-11-12T05:28:46.304Z,7.40
2022-11-12T05:33:47.905Z,7.80
2022-11-12T05:38:49.512Z,7.40
2022-11-12T05:43:51.205Z,7.67
2022-11-12T05:48:52.832Z,8.03
2022-11-12T05:53:54.456Z,7.30
2022-11-12T05:58:56.302Z,7.70
2022-11-12T06:03:57.922Z,8.43
2022-11-12T06:08:59.608Z,8.50
2022-11-12T06:14:02.437Z,8.97
2022-11-12T06:19:04.984Z,9.33
2022-11-12T06:24:06.703Z,11.20
2022-11-12T06:29:08.329Z,12.50
2022-11-12T06:34:10.032Z,12.50
2022-11-12T06:39:12.074Z,13.37
2022-11-12T06:44:16.583Z,11.13
2022-11-12T06:49:22.398Z,10.17
2022-11-12T06:54:24.346Z,9.63
2022-11-12T06:59:25.934Z,10.47
2022-11-12T07:04:27.668Z,10.07
2022-11-12T07:09:29.228Z,10.50
2022-11-12T07:14:30.779Z,10.50
2022-11-12T07:19:32.413Z,9.60
2022-11-12T07:24:34.035Z,10.90
2022-11-12T07:29:47.630Z,11.57
2022-11-12T07:34:50.339Z,10.93
2022-11-12T07:39:51.919Z,10.90
2022-11-12T07:44:53.462Z,10.23
2022-11-12T07:49:55.176Z,10.87
2022-11-12T07:54:56.702Z,11.37
2022-11-12T07:59:58.243Z,11.53
2022-11-12T08:04:59.846Z,12.40
2022-11-12T08:10:01.392Z,10.97
2022-11-12T08:15:03.939Z,11.13
2022-11-12T08:20:06.380Z,11.97
2022-11-12T08:25:08.865Z,12.57
2022-11-12T08:30:11.231Z,12.53
2022-11-12T08:35:12.922Z,11.60
2022-11-12T08:40:14.507Z,10.57
2022-11-12T08:45:16.086Z,10.50
2022-11-12T08:50:17.638Z,10.40
2022-11-12T08:55:19.292Z,11.07
2022-11-12T09:00:21.338Z,11.23
2022-11-12T09:05:22.935Z,12.43
2022-11-12T09:10:25.175Z,13.23
2022-11-12T09:15:42.464Z,12.20
2022-11-12T09:20:44.299Z,16.67
2022-11-12T09:25:45.983Z,14.00
2022-11-12T09:30:49.531Z,13.90
2022-11-12T09:35:55.061Z,10.50
2022-11-12T09:41:15.038Z,10.37
2022-11-12T09:46:28.383Z,9.73
2022-11-12T09:51:41.433Z,10.20
2022-11-12T09:56:43.028Z,10.37
2022-11-12T10:01:56.879Z,11.10
2022-11-12T10:07:15.901Z,11.17
2022-11-12T10:13:10.552Z,11.37
2022-11-12T10:18:54.691Z,12.30
2022-11-12T10:23:57.954Z,10.13
2022-11-12T10:29:11.917Z,10.13
2022-11-12T10:34:13.406Z,10.30
2022-11-12T10:39:38.011Z,10.83
2022-11-12T10:44:40.967Z,11.03
2022-11-12T10:49:42.539Z,10.53
2022-11-12T10:54:44.121Z,9.70
2022-11-12T10:59:45.736Z,10.20
2022-11-12T11:06:13.967Z,10.80
2022-11-12T11:11:20.280Z,10.83
2022-11-12T11:16:27.493Z,11.20
2022-11-12T11:21:58.620Z,13.03
2022-11-12T11:27:21.668Z,11.83
2022-11-12T11:32:52.172Z,18.47
2022-11-12T11:38:12.404Z,13.03
2022-11-12T11:43:32.549Z,11.53
2022-11-12T11:48:43.256Z,12.30
2022-11-12T11:54:21.951Z,12.47
2022-11-12T12:00:01.073Z,15.03
2022-11-12T12:05:24.303Z,15.13
2022-11-12T12:11:08.904Z,14.60
2022-11-12T12:16:21.023Z,14.93
2022-11-12T12:21:26.035Z,13.97
2022-11-12T12:26:41.864Z,14.07
2022-11-12T12:32:19.311Z,15.30
2022-11-12T12:37:39.584Z,14.40
2022-11-12T12:42:52.525Z,16.57
2022-11-12T12:47:55.471Z,16.73
2022-11-12T12:53:05.800Z,16.73
2022-11-12T12:58:22.554Z,17.03
2022-11-12T13:03:42.626Z,17.03
2022-11-12T13:08:44.477Z,16.63
2022-11-12T13:13:46.113Z,16.67
2022-11-12T13:18:50.693Z,16.27
2022-11-12T13:24:07.273Z,17.37
2022-11-12T13:29:27.374Z,18.47
2022-11-12T13:34:33.604Z,15.40
2022-11-12T13:39:36.357Z,17.43
2022-11-12T13:44:38.211Z,18.37
2022-11-12T13:49:39.960Z,18.13
2022-11-12T13:54:42.313Z,15.10
2022-11-12T13:59:46.507Z,15.80
2022-11-12T14:04:48.532Z,16.57
2022-11-12T14:10:00.302Z,17.17
2022-11-12T14:15:26.651Z,17.63
2022-11-12T14:20:40.137Z,18.87
2022-11-12T14:25:48.792Z,20.20
2022-11-12T14:30:50.602Z,18.73
2022-11-12T14:35:55.914Z,19.53
2022-11-12T14:41:11.561Z,21.83
2022-11-12T14:46:37.695Z,19.87
2022-11-12T14:51:47.980Z,21.70
2022-11-12T14:56:49.719Z,21.83
2022-11-12T15:02:29.474Z,21.37
2022-11-12T15:07:34.136Z,21.50
2022-11-12T15:12:35.823Z,21.87
2022-11-12T15:17:38.116Z,21.93
2022-11-12T15:22:39.898Z,21.70
2022-11-12T15:27:42.860Z,21.27
2022-11-12T15:32:45.430Z,19.93
2022-11-12T15:37:47.068Z,20.17
2022-11-12T15:42:48.818Z,21.40
2022-11-12T15:47:50.398Z,20.57
2022-11-12T15:52:52.259Z,21.50
2022-11-12T15:57:53.983Z,21.10
2022-11-12T16:03:05.438Z,21.00
2022-11-12T16:08:07.582Z,20.10
2022-11-12T16:13:31.205Z,22.13
2022-11-12T16:18:32.995Z,21.80
2022-11-12T16:23:34.742Z,21.77
2022-11-12T16:28:36.515Z,21.40
2022-11-12T16:33:38.187Z,22.70
2022-11-12T16:38:39.756Z,23.40
2022-11-12T16:43:41.378Z,23.10
2022-11-12T16:48:43.110Z,20.33
2022-11-12T16:53:45.260Z,22.70
2022-11-12T16:58:48.536Z,22.27
2022-11-12T17:03:51.399Z,21.47
2022-11-12T17:08:55.919Z,22.00
2022-11-12T17:13:57.585Z,23.07
2022-11-12T17:19:01.968Z,21.90
2022-11-12T17:24:03.816Z,23.20
2022-11-12T17:29:08.223Z,22.40
2022-11-12T17:34:10.382Z,23.23
2022-11-12T17:39:13.216Z,23.33
2022-11-12T17:44:17.303Z,25.33
2022-11-12T17:49:19.318Z,23.67
2022-11-12T17:54:21.462Z,23.70
2022-11-12T17:59:23.131Z,24.87
2022-11-12T18:04:26.621Z,25.00
2022-11-12T18:09:31.605Z,24.30
2022-11-12T18:14:33.163Z,22.93
2022-11-12T18:19:34.717Z,23.00
2022-11-12T18:24:36.527Z,23.57
2022-11-12T18:29:40.305Z,24.07
2022-11-12T18:34:45.084Z,21.93
2022-11-12T18:39:46.728Z,21.97
2022-11-12T18:44:48.371Z,22.03
2022-11-12T18:49:50.092Z,22.30
2022-11-12T18:54:51.690Z,22.23
2022-11-12T18:59:55.087Z,22.83
2022-11-12T19:04:56.710Z,24.23
2022-11-12T19:09:58.306Z,26.97
2022-11-12T19:14:59.945Z,25.13
2022-11-12T19:20:01.542Z,27.20
2022-11-12T19:25:03.792Z,28.50
2022-11-12T19:30:06.956Z,28.00
2022-11-12T19:35:09.089Z,27.73
2022-11-12T19:40:11.696Z,28.23
2022-11-12T19:45:13.427Z,28.63
2022-11-12T19:50:15.088Z,30.67
2022-11-12T19:55:16.692Z,36.43
2022-11-12T20:00:18.532Z,31.57
2022-11-12T20:05:20.137Z,29.93
2022-11-12T20:10:22.132Z,27.97
2022-11-12T20:15:23.789Z,30.00
2022-11-12T20:20:25.375Z,30.43
2022-11-12T20:25:26.982Z,29.67
2022-11-12T20:30:28.571Z,32.10
2022-11-12T20:35:30.288Z,28.70
2022-11-12T20:40:32.452Z,28.53
2022-11-12T20:45:35.219Z,26.93
2022-11-12T20:50:37.003Z,32.60
2022-11-12T20:55:39.385Z,28.40
2022-11-12T21:00:41.012Z,28.07
2022-11-12T21:05:42.781Z,26.70
2022-11-12T21:10:49.004Z,29.73
2022-11-12T21:15:51.763Z,27.83
2022-11-12T21:21:01.554Z,28.07
2022-11-12T21:26:09.987Z,27.53
2022-11-12T21:31:18.264Z,28.57
2022-11-12T21:36:20.846Z,28.10
2022-11-12T21:41:24.878Z,25.97
2022-11-12T21:46:29.212Z,27.23
2022-11-12T21:51:33.556Z,27.77
2022-11-12T21:56:35.424Z,25.53
2022-11-12T22:01:37.122Z,25.00
2022-11-12T22:06:38.945Z,24.53
2022-11-12T22:11:40.811Z,23.13
2022-11-12T22:16:42.517Z,24.20
2022-11-12T22:21:44.704Z,24.57
2022-11-12T22:26:46.324Z,22.57
2022-11-12T22:31:48.128Z,19.63
2022-11-12T22:36:49.841Z,25.83
2022-11-12T22:41:51.433Z,22.40
2022-11-12T22:46:53.156Z,20.03
2022-11-12T22:51:55.906Z,21.90
2022-11-12T22:56:58.586Z,21.00
2022-11-12T23:02:00.251Z,20.17
2022-11-12T23:07:02.080Z,19.67
2022-11-12T23:12:04.101Z,19.40
2022-11-12T23:17:05.695Z,20.73
2022-11-12T23:22:08.243Z,19.53
2022-11-12T23:27:10.000Z,20.80
2022-11-12T23:32:12.092Z,20.87
2022-11-12T23:37:13.813Z,19.13
2022-11-12T23:42:15.506Z,20.63
2022-11-12T23:47:17.230Z,21.47
2022-11-12T23:52:19.174Z,20.27
2022-11-12T23:57:20.875Z,19.57
